Time;durP1;ratioP1;P1;durP2;ratioP2;P2;SDS_P1;SDS_P2;PMS_P1;PMS_P2;Temp;Humidity;BMP_temperature;BMP_pressure;BME280_temperature;BME280_humidity;BME280_pressure;Samples;Min_cycle;Max_cycle;Signal;HPM_P1;HPM_P2
2023/10/31 00:00:45;;;;;;;;;;;13.30;70.70;;;8.96;100.00;94200.09;4934115;28;20060;-55
2023/10/31 00:03:11;;;;;;;;;;;13.30;70.70;;;8.99;100.00;94193.38;4936456;28;19957;-54
2023/10/31 00:05:37;;;;;;;;;;;13.30;70.70;;;9.00;100.00;94198.41;4933502;29;19914;-53
2023/10/31 00:08:03;;;;;;;;;;;13.30;70.70;;;9.01;100.00;94202.66;4932310;29;19972;-55
2023/10/31 00:10:29;;;;;;;;;;;13.40;70.70;;;9.02;100.00;94200.78;4933141;29;19914;-56
2023/10/31 00:12:55;;;;;;;;;;;13.30;70.70;;;9.03;100.00;94191.75;4934642;29;20063;-57
2023/10/31 00:15:20;;;;;;;;;;;13.30;70.60;;;9.01;100.00;94200.00;4933262;29;19910;-57
2023/10/31 00:17:46;;;;;;;;;;;13.40;70.60;;;9.01;100.00;94205.31;4933385;29;19910;-53
2023/10/31 00:20:12;;;;;;;;;;;13.40;70.50;;;8.99;100.00;94202.16;4931607;29;19940;-51
2023/10/31 00:22:38;;;;;;;;;;;13.30;70.40;;;8.96;100.00;94207.22;4933287;29;19910;-56
2023/10/31 00:25:04;;;;;;;;;;;13.30;70.40;;;8.97;100.00;94204.31;4932643;29;19915;-50
2023/10/31 00:27:30;;;;;;;;;;;13.30;70.40;;;8.98;100.00;94211.19;4933233;29;19910;-51
2023/10/31 00:29:56;;;;;;;;;;;13.30;70.50;;;8.98;100.00;94207.75;4932679;29;19910;-49
2023/10/31 00:32:22;;;;;;;;;;;13.30;70.40;;;8.93;100.00;94208.63;4933580;29;20402;-51
2023/10/31 00:34:47;;;;;;;;;;;13.30;70.40;;;8.92;100.00;94211.53;4933084;29;20293;-51
2023/10/31 00:37:13;;;;;;;;;;;13.30;70.40;;;8.91;100.00;94215.28;4937994;28;19951;-55
2023/10/31 00:39:39;;;;;;;;;;;13.30;70.40;;;8.91;100.00;94212.63;4932853;29;19941;-57
2023/10/31 00:42:05;;;;;;;;;;;13.30;70.40;;;8.90;100.00;94203.88;4933149;29;20302;-54
2023/10/31 00:44:31;;;;;;;;;;;13.30;70.40;;;8.88;100.00;94208.69;4932290;29;20005;-53
2023/10/31 00:46:57;;;;;;;;;;;13.20;70.30;;;8.86;100.00;94218.78;4933087;29;20008;-52
2023/10/31 00:49:22;;;;;;;;;;;13.30;70.40;;;8.87;100.00;94219.56;4932296;29;19911;-53
2023/10/31 00:51:48;;;;;;;;;;;13.30;70.50;;;8.87;100.00;94227.53;4932762;29;19910;-53
2023/10/31 00:54:14;;;;;;;;;;;13.30;70.50;;;8.83;100.00;94240.59;4933053;29;20297;-53
2023/10/31 00:56:40;;;;;;;;;;;13.20;70.40;;;8.84;100.00;94241.38;4936070;29;19910;-55
2023/10/31 00:59:05;;;;;;;;;;;13.30;70.40;;;8.84;100.00;94257.31;4933053;29;19918;-50
2023/10/31 01:01:31;;;;;;;;;;;13.20;70.40;;;8.84;100.00;94262.63;4931688;29;19988;-50
2023/10/31 01:03:57;;;;;;;;;;;13.20;70.40;;;8.82;100.00;94276.22;4932827;29;19914;-51
2023/10/31 01:06:23;;;;;;;;;;;13.20;70.40;;;8.82;100.00;94292.13;4932876;29;20396;-48
2023/10/31 01:08:49;;;;;;;;;;;13.20;70.40;;;8.78;100.00;94299.88;4930171;29;19950;-50
2023/10/31 01:11:15;;;;;;;;;;;13.20;70.40;;;8.77;100.00;94303.63;4932206;29;19911;-50
2023/10/31 01:13:40;;;;;;;;;;;13.20;70.50;;;8.78;100.00;94312.38;4931930;29;19935;-50
2023/10/31 01:16:07;;;;;;;;;;;13.20;70.60;;;8.78;100.00;94307.06;4932548;29;19965;-51
2023/10/31 01:18:32;;;;;;;;;;;13.20;70.70;;;8.75;100.00;94303.09;4932212;29;19916;-58
2023/10/31 01:20:58;;;;;;;;;;;13.20;70.80;;;8.81;100.00;94295.88;4935669;29;20341;-56
2023/10/31 01:23:24;;;;;;;;;;;13.20;70.90;;;8.83;100.00;94291.06;4936097;28;20447;-54
2023/10/31 01:25:50;;;;;;;;;;;13.20;70.90;;;8.84;100.00;94297.97;4935222;29;19917;-57
2023/10/31 01:28:15;;;;;;;;;;;13.20;70.80;;;8.83;100.00;94301.69;4936104;29;19937;-56
2023/10/31 01:30:41;;;;;;;;;;;13.20;70.80;;;8.82;100.00;94299.31;4934855;29;19941;-50
2023/10/31 01:33:07;;;;;;;;;;;13.20;70.90;;;8.82;100.00;94302.75;4936038;29;19918;-55
2023/10/31 01:35:33;;;;;;;;;;;13.20;70.90;;;8.79;100.00;94301.47;4935987;29;19910;-58
2023/10/31 01:37:59;;;;;;;;;;;13.10;70.90;;;8.79;100.00;94298.00;4935396;29;19914;-55
2023/10/31 01:40:24;;;;;;;;;;;13.20;71.00;;;8.79;100.00;94295.34;4935321;29;19957;-53
2023/10/31 01:42:50;;;;;;;;;;;13.20;70.90;;;8.79;100.00;94298.00;4935666;29;20013;-57
2023/10/31 01:45:16;;;;;;;;;;;13.10;70.90;;;8.75;100.00;94289.84;4935856;29;19953;-56
2023/10/31 01:47:47;;;;;;;;;;;13.10;70.90;;;8.73;100.00;94285.88;4935673;29;19914;-57
2023/10/31 01:50:13;;;;;;;;;;;13.10;70.90;;;8.76;100.00;94291.41;4930030;29;20385;-57
2023/10/31 01:52:39;;;;;;;;;;;13.10;70.90;;;8.78;100.00;94286.59;4935968;29;19918;-57
2023/10/31 01:55:06;;;;;;;;;;;13.10;70.90;;;8.78;100.00;94288.47;4938247;28;20013;-54
2023/10/31 01:57:35;;;;;;;;;;;13.10;70.90;;;8.76;100.00;94293.28;4934747;29;20357;-58
2023/10/31 02:00:02;;;;;;;;;;;13.10;70.80;;;8.71;100.00;94301.28;4934813;29;19953;-57
2023/10/31 02:02:34;;;;;;;;;;;13.10;70.80;;;8.67;100.00;94298.41;4949875;23;19961;-48
2023/10/31 02:05:00;;;;;;;;;;;13.10;70.70;;;8.64;100.00;94303.50;4933159;29;19918;-48
2023/10/31 02:07:26;;;;;;;;;;;13.10;70.80;;;8.60;100.00;94307.81;4926540;28;19911;-47
2023/10/31 02:09:52;;;;;;;;;;;13.00;70.80;;;8.55;100.00;94304.13;4931301;29;19910;-46
2023/10/31 02:12:38;;;;;;;;;;;13.00;70.80;;;8.56;100.00;94313.69;4933817;29;19965;-48
2023/10/31 02:15:05;;;;;;;;;;;13.00;70.80;;;8.58;100.00;94314.16;4926916;29;19950;-46
2023/10/31 02:17:31;;;;;;;;;;;13.00;70.90;;;8.58;100.00;94316.81;4935176;28;19918;-47
2023/10/31 02:19:57;;;;;;;;;;;13.00;70.90;;;8.56;100.00;94318.19;4930421;29;19914;-46
2023/10/31 02:22:23;;;;;;;;;;;13.00;70.80;;;8.56;100.00;94313.69;4934530;29;19937;-46
2023/10/31 02:24:49;;;;;;;;;;;13.00;70.90;;;8.56;100.00;94324.28;4930990;29;20535;-48
2023/10/31 02:27:15;;;;;;;;;;;13.00;70.90;;;8.57;100.00;94335.69;4932033;28;20012;-48
2023/10/31 02:29:41;;;;;;;;;;;13.00;70.90;;;8.57;100.00;94336.47;4934524;29;20266;-48
2023/10/31 02:32:06;;;;;;;;;;;13.00;70.90;;;8.60;100.00;94343.09;4927403;28;19914;-46
2023/10/31 02:34:34;;;;;;;;;;;13.00;70.90;;;8.62;100.00;94345.44;4934828;28;19965;-46
2023/10/31 02:36:59;;;;;;;;;;;13.00;70.90;;;8.60;100.00;94337.78;4928579;29;19911;-47
2023/10/31 02:39:25;;;;;;;;;;;13.00;70.90;;;8.55;100.00;94340.47;4929341;29;19910;-47
2023/10/31 02:41:51;;;;;;;;;;;13.00;70.80;;;8.56;100.00;94345.53;4934377;29;20384;-50
2023/10/31 02:44:17;;;;;;;;;;;13.00;70.80;;;8.54;100.00;94352.97;4928461;28;20005;-49
2023/10/31 02:46:43;;;;;;;;;;;13.00;71.60;;;8.53;100.00;94347.94;4934439;29;19910;-52
2023/10/31 02:49:09;;;;;;;;;;;13.00;70.80;;;8.54;100.00;94358.28;4929086;29;19915;-47
2023/10/31 02:51:35;;;;;;;;;;;13.00;70.80;;;8.55;100.00;94353.75;4934398;29;20405;-47
2023/10/31 02:54:01;;;;;;;;;;;13.00;70.80;;;8.54;100.00;94362.81;4934252;28;19933;-48
2023/10/31 02:56:27;;;;;;;;;;;13.00;70.70;;;8.52;100.00;94354.31;4927934;28;19910;-47
2023/10/31 02:58:53;;;;;;;;;;;13.00;71.60;;;8.51;100.00;94356.19;4934496;29;19915;-46
2023/10/31 03:01:19;;;;;;;;;;;13.00;70.70;;;8.49;100.00;94353.03;4928570;29;19925;-46
2023/10/31 03:03:45;;;;;;;;;;;13.00;70.80;;;8.48;100.00;94348.00;4929520;28;19918;-48
2023/10/31 03:06:11;;;;;;;;;;;13.00;70.80;;;8.46;100.00;94358.09;4930779;29;19997;-47
2023/10/31 03:08:37;;;;;;;;;;;13.00;70.90;;;8.48;100.00;94354.09;4926689;29;19989;-47
2023/10/31 03:11:03;;;;;;;;;;;12.90;70.80;;;8.48;100.00;94358.59;4927787;29;19910;-46
2023/10/31 03:13:28;;;;;;;;;;;12.90;70.70;;;8.43;100.00;94356.81;4930629;28;19914;-47
2023/10/31 03:15:54;;;;;;;;;;;12.90;70.80;;;8.48;100.00;94367.34;4934089;29;19914;-49
2023/10/31 03:18:20;;;;;;;;;;;12.90;70.80;;;8.44;100.00;94369.00;4934120;29;20392;-48
2023/10/31 03:20:46;;;;;;;;;;;12.90;70.80;;;8.48;100.00;94369.22;4927722;28;19918;-48
2023/10/31 03:23:13;;;;;;;;;;;12.90;70.80;;;8.44;100.00;94371.66;4933837;28;19910;-49
2023/10/31 03:25:39;;;;;;;;;;;12.90;70.80;;;8.46;100.00;94377.47;4927054;28;20331;-48
2023/10/31 03:28:19;;;;;;;;;;;12.90;70.80;;;8.49;100.00;94376.09;4934101;29;19917;-46
2023/10/31 03:30:49;;;;;;;;;;;13.00;70.90;;;8.49;100.00;94384.88;4930402;29;20297;-47
2023/10/31 03:33:18;;;;;;;;;;;12.90;70.80;;;8.45;100.00;94396.31;4930595;28;20062;-47
2023/10/31 03:35:45;;;;;;;;;;;12.90;70.70;;;8.49;100.00;94400.00;4934182;29;19918;-48
2023/10/31 03:38:11;;;;;;;;;;;12.90;70.70;;;8.49;100.00;94398.16;4921153;28;19938;-48
2023/10/31 03:40:36;;;;;;;;;;;12.90;70.60;;;8.47;100.00;94400.28;4933394;29;19922;-47
2023/10/31 03:43:02;;;;;;;;;;;13.00;70.70;;;8.49;100.00;94413.25;4927102;29;20044;-45
2023/10/31 03:45:30;;;;;;;;;;;12.90;70.60;;;8.52;100.00;94404.75;4932248;29;19914;-48
2023/10/31 03:47:55;;;;;;;;;;;13.00;70.60;;;8.47;100.00;94410.13;4933643;29;19914;-50
2023/10/31 03:50:21;;;;;;;;;;;13.00;70.60;;;8.45;100.00;94430.81;4926629;29;20396;-48
2023/10/31 03:52:47;;;;;;;;;;;12.90;70.50;;;8.34;100.00;94432.75;4933539;29;20273;-48
2023/10/31 03:55:13;;;;;;;;;;;12.90;70.40;;;8.25;100.00;94429.91;4928709;29;19918;-46
2023/10/31 03:57:39;;;;;;;;;;;12.80;71.10;;;8.19;100.00;94425.69;4933477;28;19911;-47
2023/10/31 04:00:07;;;;;;;;;;;12.70;70.20;;;8.21;100.00;94436.00;4933167;28;19969;-48
2023/10/31 04:02:34;;;;;;;;;;;12.60;70.30;;;8.17;100.00;94432.34;4925385;29;26665;-49
2023/10/31 04:05:01;;;;;;;;;;;12.60;70.30;;;8.16;100.00;94438.72;4922344;29;19914;-47
2023/10/31 04:07:27;;;;;;;;;;;12.50;70.40;;;8.12;100.00;94425.22;4925358;29;19922;-47
2023/10/31 04:09:52;;;;;;;;;;;12.50;70.40;;;8.11;100.00;94428.94;4929233;29;19910;-47
2023/10/31 04:12:18;;;;;;;;;;;12.50;70.50;;;8.09;100.00;94428.44;4933119;28;19915;-46
2023/10/31 04:14:44;;;;;;;;;;;12.40;70.40;;;8.03;100.00;94430.31;4927155;29;19957;-48
2023/10/31 04:17:10;;;;;;;;;;;12.40;70.50;;;8.01;100.00;94436.97;4933734;29;19932;-46
2023/10/31 04:19:37;;;;;;;;;;;12.40;70.40;;;7.91;100.00;94429.88;4928286;29;19918;-47
2023/10/31 04:22:03;;;;;;;;;;;12.30;70.40;;;7.91;100.00;94445.78;4933195;29;20001;-48
2023/10/31 04:24:29;;;;;;;;;;;12.30;70.50;;;7.89;100.00;94447.91;4933008;29;19933;-48
2023/10/31 04:26:54;;;;;;;;;;;12.20;70.40;;;7.85;100.00;94447.66;4927355;29;19915;-46
2023/10/31 04:29:20;;;;;;;;;;;12.20;70.50;;;7.81;100.00;94453.81;4932805;29;20359;-47
2023/10/31 04:31:46;;;;;;;;;;;12.20;70.60;;;7.76;100.00;94451.16;4927768;28;19910;-46
2023/10/31 04:34:12;;;;;;;;;;;12.20;70.60;;;7.72;100.00;94450.94;4932801;29;20366;-48
2023/10/31 04:36:39;;;;;;;;;;;12.10;70.60;;;7.68;100.00;94447.25;4931581;29;20011;-46
2023/10/31 04:39:05;;;;;;;;;;;12.10;70.60;;;7.70;100.00;94449.63;4927501;29;20296;-45
2023/10/31 04:41:32;;;;;;;;;;;12.10;70.70;;;7.68;100.00;94449.09;4933017;29;19926;-46
2023/10/31 04:43:57;;;;;;;;;;;12.10;70.80;;;7.70;100.00;94449.63;4922838;28;20357;-45
2023/10/31 04:46:27;;;;;;;;;;;12.10;70.90;;;7.69;100.00;94453.34;4933083;29;19941;-50
2023/10/31 04:48:53;;;;;;;;;;;12.10;70.90;;;7.67;100.00;94447.50;4929542;29;19910;-46
2023/10/31 04:51:19;;;;;;;;;;;12.00;70.70;;;7.69;100.00;94443.53;4924907;29;19942;-46
2023/10/31 04:53:45;;;;;;;;;;;12.10;70.90;;;7.66;100.00;94444.06;4934632;29;19997;-46
2023/10/31 04:56:16;;;;;;;;;;;12.00;70.70;;;7.65;100.00;94445.94;4934758;29;19957;-46
2023/10/31 04:58:45;;;;;;;;;;;12.10;70.80;;;7.63;100.00;94453.34;4936416;28;19965;-46
2023/10/31 05:01:13;;;;;;;;;;;12.00;70.70;;;7.62;100.00;94446.47;4931127;28;19941;-46
2023/10/31 05:03:40;;;;;;;;;;;12.00;70.60;;;7.58;100.00;94442.81;4933513;29;20456;-47
2023/10/31 05:06:06;;;;;;;;;;;12.00;70.60;;;7.57;100.00;94435.91;4926333;29;19911;-46
2023/10/31 05:08:32;;;;;;;;;;;12.10;70.70;;;7.58;100.00;94444.63;4926046;29;19946;-45
2023/10/31 05:10:59;;;;;;;;;;;12.00;70.70;;;7.53;100.00;94442.81;4936068;29;19969;-46
2023/10/31 05:13:25;;;;;;;;;;;12.00;70.70;;;7.55;100.00;94443.34;4929353;29;19922;-46
2023/10/31 05:15:51;;;;;;;;;;;12.00;70.70;;;7.56;100.00;94444.13;4936344;29;19910;-46
2023/10/31 05:18:17;;;;;;;;;;;12.00;70.70;;;7.57;100.00;94440.41;4936184;29;19917;-46
2023/10/31 05:20:43;;;;;;;;;;;12.00;70.80;;;7.59;100.00;94441.72;4930778;29;19915;-46
2023/10/31 05:23:09;;;;;;;;;;;12.00;70.90;;;7.61;100.00;94439.56;4936065;29;20333;-46
2023/10/31 05:25:36;;;;;;;;;;;12.10;71.00;;;7.64;100.00;94432.94;4929227;29;19910;-46
2023/10/31 05:28:02;;;;;;;;;;;12.10;71.00;;;7.68;100.00;94438.47;4936643;28;20013;-46
2023/10/31 05:30:28;;;;;;;;;;;12.10;71.00;;;7.71;100.00;94445.88;4935722;29;20010;-48
2023/10/31 05:32:53;;;;;;;;;;;12.10;71.00;;;7.74;100.00;94446.16;4938631;28;19914;-46
2023/10/31 05:35:19;;;;;;;;;;;12.10;71.00;;;7.74;100.00;94454.09;4936049;29;19973;-47
2023/10/31 05:37:46;;;;;;;;;;;12.10;71.00;;;7.79;100.00;94455.94;4944338;28;20027;-45
2023/10/31 05:40:15;;;;;;;;;;;12.10;71.00;;;7.78;100.00;94459.66;4932397;29;20345;-48
2023/10/31 05:42:41;;;;;;;;;;;12.20;71.00;;;7.79;100.00;94461.22;4933318;29;19938;-47
2023/10/31 05:45:07;;;;;;;;;;;12.20;71.00;;;7.79;100.00;94454.06;4931911;29;19958;-46
2023/10/31 05:47:32;;;;;;;;;;;12.20;70.90;;;7.81;100.00;94459.09;4935811;29;19957;-46
2023/10/31 05:49:59;;;;;;;;;;;12.20;71.00;;;7.80;100.00;94460.97;4929241;29;19917;-48
2023/10/31 05:52:29;;;;;;;;;;;12.20;70.90;;;7.85;100.00;94458.28;4935191;29;20032;-47
2023/10/31 05:54:56;;;;;;;;;;;12.20;70.90;;;7.86;100.00;94459.06;4931247;29;19950;-49
2023/10/31 05:57:22;;;;;;;;;;;12.20;70.90;;;7.86;100.00;94457.19;4910442;29;19966;-47
2023/10/31 05:59:47;;;;;;;;;;;12.30;70.90;;;7.88;100.00;94467.53;4916250;29;19918;-48
2023/10/31 06:02:14;;;;;;;;;;;12.20;70.80;;;7.86;100.00;94464.38;4910700;29;19915;-50
2023/10/31 06:04:40;;;;;;;;;;;12.20;70.80;;;7.83;100.00;94475.50;4908772;29;20262;-47
2023/10/31 06:07:06;;;;;;;;;;;12.20;71.50;;;7.85;100.00;94476.03;4912522;29;19917;-50
2023/10/31 06:09:33;;;;;;;;;;;12.30;70.80;;;7.84;100.00;94479.78;4916411;29;19915;-48
2023/10/31 06:12:00;;;;;;;;;;;12.30;70.80;;;7.87;100.00;94485.31;4916288;29;19911;-47
2023/10/31 06:14:26;;;;;;;;;;;12.30;70.80;;;7.86;100.00;94483.72;4925159;29;20012;-47
2023/10/31 06:16:53;;;;;;;;;;;12.30;70.80;;;7.89;100.00;94485.03;4935363;29;20013;-49
2023/10/31 06:19:19;;;;;;;;;;;12.30;70.70;;;7.88;100.00;94494.06;4930712;29;19922;-47
2023/10/31 06:21:45;;;;;;;;;;;12.30;70.70;;;7.88;100.00;94492.19;4934513;29;20013;-46
2023/10/31 06:24:11;;;;;;;;;;;12.40;70.70;;;7.90;100.00;94489.28;4934993;28;20061;-49
2023/10/31 06:26:36;;;;;;;;;;;12.30;70.80;;;7.95;100.00;94493.75;4926166;29;19910;-47
2023/10/31 06:29:03;;;;;;;;;;;12.30;70.70;;;7.99;100.00;94498.25;4934945;29;19911;-50
2023/10/31 06:31:29;;;;;;;;;;;12.30;70.70;;;7.99;100.00;94495.59;4929692;29;20270;-47
2023/10/31 06:33:55;;;;;;;;;;;12.40;70.80;;;8.02;100.00;94507.50;4934497;29;19922;-50
2023/10/31 06:36:20;;;;;;;;;;;12.40;70.70;;;8.03;100.00;94507.22;4927415;29;20021;-47
2023/10/31 06:38:46;;;;;;;;;;;12.40;70.70;;;8.03;100.00;94509.88;4919937;29;20403;-48
2023/10/31 06:41:12;;;;;;;;;;;12.50;70.70;;;8.06;100.00;94513.84;4933423;29;20389;-47
2023/10/31 06:43:38;;;;;;;;;;;12.50;70.60;;;8.07;100.00;94515.44;4917766;29;19914;-48
2023/10/31 06:46:05;;;;;;;;;;;12.50;70.50;;;8.07;100.00;94518.88;4934540;29;19969;-46
2023/10/31 06:48:30;;;;;;;;;;;12.50;70.60;;;8.12;100.00;94531.31;4922925;29;19911;-46
2023/10/31 06:50:56;;;;;;;;;;;12.50;70.50;;;8.10;100.00;94534.25;4922973;29;20282;-47
2023/10/31 06:53:22;;;;;;;;;;;12.50;70.50;;;8.14;100.00;94536.34;4930818;29;19921;-46
2023/10/31 06:55:48;;;;;;;;;;;12.50;70.40;;;8.13;100.00;94542.72;4931038;29;20293;-47
2023/10/31 06:58:14;;;;;;;;;;;12.50;70.30;;;8.12;100.00;94544.59;4924293;29;19918;-47
2023/10/31 07:00:40;;;;;;;;;;;12.60;70.30;;;8.14;100.00;94536.34;4924588;29;19925;-48
2023/10/31 07:03:09;;;;;;;;;;;12.60;70.30;;;8.12;100.00;94544.59;4933295;28;20362;-46
2023/10/31 07:05:37;;;;;;;;;;;12.60;70.30;;;8.17;100.00;94541.88;4920289;28;19910;-49
2023/10/31 07:08:05;;;;;;;;;;;12.60;70.30;;;8.20;100.00;94554.59;4926570;29;19934;-47
2023/10/31 07:10:31;;;;;;;;;;;12.50;70.20;;;8.20;100.00;94559.13;4928040;28;20385;-47
2023/10/31 07:12:58;;;;;;;;;;;12.60;70.30;;;8.21;100.00;94566.00;4925123;29;19914;-47
2023/10/31 07:15:25;;;;;;;;;;;12.60;70.20;;;8.22;100.00;94564.97;4932082;29;20369;-47
2023/10/31 07:17:51;;;;;;;;;;;12.60;70.20;;;8.24;100.00;94568.09;4924311;28;20040;-48
2023/10/31 07:20:17;;;;;;;;;;;12.70;70.30;;;8.25;100.00;94567.84;4919859;29;19918;-47
2023/10/31 07:22:43;;;;;;;;;;;12.70;70.20;;;8.32;100.00;94568.34;4942168;28;19914;-47
2023/10/31 07:25:09;;;;;;;;;;;12.70;70.20;;;8.31;100.00;94565.97;4916700;29;20362;-48
2023/10/31 07:27:36;;;;;;;;;;;12.80;70.20;;;8.30;100.00;94567.84;4927638;29;20078;-47
2023/10/31 07:30:05;;;;;;;;;;;12.80;70.10;;;8.34;100.00;94576.03;4928819;29;19910;-47
2023/10/31 07:32:32;;;;;;;;;;;12.90;70.00;;;8.34;100.00;94576.81;4921176;28;19926;-47
2023/10/31 07:34:58;;;;;;;;;;;12.90;69.90;;;8.35;100.00;94569.66;4923877;29;20465;-48
2023/10/31 07:37:24;;;;;;;;;;;12.90;69.80;;;8.35;100.00;94572.31;4920986;29;20360;-46
2023/10/31 07:39:50;;;;;;;;;;;13.00;69.80;;;8.36;100.00;94571.22;4922883;29;20001;-48
2023/10/31 07:42:17;;;;;;;;;;;13.00;69.80;;;8.37;100.00;94577.31;4920677;29;19915;-50
2023/10/31 07:44:43;;;;;;;;;;;13.00;69.70;;;8.36;100.00;94576.53;4920963;29;19911;-47
2023/10/31 07:47:08;;;;;;;;;;;13.10;69.60;;;8.42;100.00;94586.09;4930286;29;20336;-47
2023/10/31 07:49:34;;;;;;;;;;;13.00;69.60;;;8.43;100.00;94578.91;4928168;28;19917;-46
2023/10/31 07:52:00;;;;;;;;;;;13.10;69.60;;;8.47;100.00;94591.38;4933976;29;19910;-46
2023/10/31 07:54:26;;;;;;;;;;;13.10;69.60;;;8.51;100.00;94584.44;4925850;28;19915;-47
2023/10/31 07:56:53;;;;;;;;;;;13.10;69.60;;;8.56;100.00;94581.75;4922590;28;19910;-48
2023/10/31 07:59:19;;;;;;;;;;;13.10;69.50;;;8.60;100.00;94582.00;4930607;29;19997;-46
2023/10/31 08:01:44;;;;;;;;;;;13.20;69.50;;;8.58;100.00;94581.47;4927168;28;19981;-48
2023/10/31 08:04:10;;;;;;;;;;;13.20;69.40;;;8.60;100.00;94592.63;4926263;29;20378;-46
2023/10/31 08:06:36;;;;;;;;;;;13.20;69.30;;;8.58;100.00;94586.78;4933202;29;20322;-47
2023/10/31 08:09:02;;;;;;;;;;;13.30;69.40;;;8.62;100.00;94590.50;4928221;29;19910;-48
2023/10/31 08:11:28;;;;;;;;;;;13.30;69.40;;;8.51;100.00;94597.72;4947776;28;19915;-46
2023/10/31 08:13:54;;;;;;;;;;;13.30;69.30;;;8.56;100.00;94600.34;4927330;29;19998;-48
2023/10/31 08:16:20;;;;;;;;;;;13.30;69.20;;;8.63;100.00;94597.38;4933144;28;20393;-47
2023/10/31 08:18:46;;;;;;;;;;;13.30;69.20;;;8.62;100.00;94605.59;4931704;28;19944;-47
2023/10/31 08:21:12;;;;;;;;;;;13.20;69.10;;;8.62;100.00;94602.94;4931804;29;19925;-48
2023/10/31 08:23:38;;;;;;;;;;;13.30;69.30;;;8.69;100.00;94601.59;4933239;29;20013;-47
2023/10/31 08:26:04;;;;;;;;;;;13.30;69.30;;;8.73;100.00;94607.13;4924100;29;20005;-49
2023/10/31 08:28:30;;;;;;;;;;;13.30;69.20;;;8.73;100.00;94602.59;4920266;29;19939;-46
2023/10/31 08:30:57;;;;;;;;;;;13.30;69.20;;;8.76;100.00;94604.72;4925634;29;19914;-46
2023/10/31 08:33:23;;;;;;;;;;;13.30;69.20;;;8.72;100.00;94606.34;4932608;29;19910;-47
2023/10/31 08:35:50;;;;;;;;;;;13.40;69.20;;;8.79;100.00;94608.69;4935052;29;19914;-47
2023/10/31 08:38:17;;;;;;;;;;;13.40;69.20;;;8.80;100.00;94604.94;4933008;28;20325;-46
2023/10/31 08:40:44;;;;;;;;;;;13.40;69.20;;;8.83;100.00;94617.66;4936935;28;20287;-49
2023/10/31 08:43:10;;;;;;;;;;;13.50;69.20;;;8.84;100.00;94611.31;4931251;28;19917;-47
2023/10/31 08:45:36;;;;;;;;;;;13.50;69.20;;;8.87;100.00;94613.41;4936231;29;20000;-50
2023/10/31 08:48:02;;;;;;;;;;;13.50;69.20;;;8.89;100.00;94618.44;4937145;29;19910;-47
2023/10/31 08:50:27;;;;;;;;;;;13.50;69.20;;;8.93;100.00;94628.25;4930506;29;20358;-49
2023/10/31 08:52:53;;;;;;;;;;;13.60;69.20;;;8.97;100.00;94620.50;4937085;29;19916;-47
2023/10/31 08:55:20;;;;;;;;;;;13.60;69.10;;;8.94;100.00;94624.50;4922752;29;19911;-46
2023/10/31 08:57:46;;;;;;;;;;;13.70;69.20;;;8.92;100.00;94623.19;4933565;29;19911;-46
2023/10/31 09:00:13;;;;;;;;;;;13.70;69.00;;;8.99;100.00;94627.13;4935749;29;19922;-48
2023/10/31 09:02:39;;;;;;;;;;;13.80;68.90;;;9.09;100.00;94630.75;4930844;29;19919;-48
2023/10/31 09:05:05;;;;;;;;;;;13.90;68.90;;;9.14;100.00;94636.03;4936057;29;20358;-47
2023/10/31 09:07:32;;;;;;;;;;;14.00;68.80;;;9.21;100.00;94631.19;4931337;29;20382;-48
2023/10/31 09:09:58;;;;;;;;;;;14.10;68.70;;;9.29;100.00;94635.91;4935877;29;20551;-46
2023/10/31 09:12:23;;;;;;;;;;;14.10;68.60;;;9.32;100.00;94626.59;4936255;29;19917;-47
2023/10/31 09:14:49;;;;;;;;;;;14.20;68.50;;;9.41;100.00;94627.59;4931093;29;19965;-49
2023/10/31 09:17:15;;;;;;;;;;;14.30;68.40;;;9.44;100.00;94616.41;4921194;28;19958;-49
2023/10/31 09:19:41;;;;;;;;;;;14.30;68.30;;;9.45;100.00;94628.59;4923351;29;19929;-47
2023/10/31 09:22:07;;;;;;;;;;;14.40;68.20;;;9.55;100.00;94625.84;4921058;29;19918;-49
2023/10/31 09:24:33;;;;;;;;;;;14.50;68.10;;;9.54;100.00;94620.81;4924527;29;19911;-48
2023/10/31 09:26:59;;;;;;;;;;;14.60;67.90;;;9.62;100.00;94621.00;4921161;29;20281;-50
2023/10/31 09:29:25;;;;;;;;;;;14.70;67.60;;;9.78;100.00;94628.81;4925829;29;19970;-47
2023/10/31 09:31:51;;;;;;;;;;;14.90;67.50;;;9.76;100.00;94631.75;4917771;28;19910;-48
2023/10/31 09:34:18;;;;;;;;;;;15.10;67.40;;;9.86;100.00;94622.88;4926744;29;19933;-50
2023/10/31 09:36:43;;;;;;;;;;;15.30;67.00;;;9.87;100.00;94616.47;4926251;29;20424;-47
2023/10/31 09:39:09;;;;;;;;;;;15.30;66.70;;;10.04;100.00;94616.03;4920333;29;19915;-47
2023/10/31 09:41:36;;;;;;;;;;;15.40;66.50;;;10.06;100.00;94614.69;4917741;29;19958;-51
2023/10/31 09:44:02;;;;;;;;;;;15.50;66.30;;;10.16;100.00;94625.19;4914738;29;19914;-51
2023/10/31 09:46:29;;;;;;;;;;;15.60;66.10;;;10.22;100.00;94620.59;4924393;29;19919;-50
2023/10/31 09:48:56;;;;;;;;;;;15.70;65.80;;;10.31;100.00;94618.94;4919286;28;19921;-52
2023/10/31 09:51:22;;;;;;;;;;;15.80;65.60;;;10.49;100.00;94620.00;4924207;29;19917;-50
2023/10/31 09:53:50;;;;;;;;;;;16.00;65.50;;;10.50;97.17;94621.59;4928427;29;19914;-53
2023/10/31 09:56:17;;;;;;;;;;;16.20;65.30;;;10.66;100.00;94630.19;4937998;28;20369;-52
2023/10/31 09:58:43;;;;;;;;;;;16.30;64.90;;;10.63;97.41;94625.44;4930300;29;20361;-54
2023/10/31 10:01:11;;;;;;;;;;;16.40;64.50;;;10.64;97.78;94627.00;4940672;28;19918;-51
2023/10/31 10:03:37;;;;;;;;;;;16.60;64.20;;;10.81;97.57;94624.63;4949311;28;19918;-54
2023/10/31 10:06:03;;;;;;;;;;;16.70;63.90;;;10.99;97.57;94625.69;4935504;29;20013;-55
2023/10/31 10:08:45;;;;;;;;;;;16.80;64.00;;;11.02;95.54;94622.44;4926359;29;19910;-50
2023/10/31 10:11:11;;;;;;;;;;;17.00;63.70;;;11.07;95.30;94622.38;4945380;28;19921;-48
2023/10/31 10:13:37;;;;;;;;;;;17.10;63.30;;;11.18;94.38;94607.00;4910107;29;20353;-52
2023/10/31 10:16:03;;;;;;;;;;;17.20;63.00;;;11.41;95.61;94620.50;4916037;29;19910;-50
2023/10/31 10:18:32;;;;;;;;;;;17.40;63.00;;;11.45;91.75;94613.50;4916228;29;20592;-53
2023/10/31 10:21:06;;;;;;;;;;;17.60;62.80;;;11.61;90.83;94614.81;4913851;29;19958;-54
2023/10/31 10:23:33;;;;;;;;;;;17.70;62.40;;;11.52;89.61;94616.56;4915750;29;19918;-52
2023/10/31 10:26:01;;;;;;;;;;;17.80;61.90;;;11.72;90.56;94623.41;4915145;29;19911;-55
2023/10/31 10:28:29;;;;;;;;;;;17.90;61.60;;;11.83;87.84;94619.47;4915891;29;19965;-54
2023/10/31 10:30:55;;;;;;;;;;;18.10;61.50;;;11.79;89.28;94621.16;4915379;29;19931;-50
2023/10/31 10:33:22;;;;;;;;;;;18.20;61.10;;;11.97;88.82;94622.19;4918353;29;20282;-48
2023/10/31 10:35:48;;;;;;;;;;;18.20;61.00;;;12.00;87.34;94624.25;4914770;29;20345;-51
2023/10/31 10:38:17;;;;;;;;;;;18.30;60.80;;;11.94;85.31;94622.78;4914767;29;20324;-50
2023/10/31 10:40:46;;;;;;;;;;;18.40;60.40;;;12.02;87.45;94627.44;4916303;28;19914;-49
2023/10/31 10:43:25;;;;;;;;;;;18.50;59.70;;;12.10;85.25;94624.09;4914851;29;20477;-51
2023/10/31 10:45:58;;;;;;;;;;;18.60;59.60;;;12.22;87.29;94629.72;4912389;29;20285;-50
2023/10/31 10:48:27;;;;;;;;;;;18.70;59.30;;;12.23;86.23;94622.50;4915054;29;20330;-47
2023/10/31 10:51:21;;;;;;;;;;;18.80;59.10;;;12.29;83.05;94625.84;4911716;29;19925;-47
2023/10/31 10:53:57;;;;;;;;;;;19.00;58.40;;;12.25;84.00;94621.13;4912320;29;19917;-50
2023/10/31 10:56:45;;;;;;;;;;;19.20;57.70;;;12.54;83.59;94619.97;4913380;29;20310;-51
2023/10/31 10:59:25;;;;;;;;;;;19.30;57.60;;;12.63;82.54;94617.38;4926355;29;20708;-51
2023/10/31 11:01:54;;;;;;;;;;;19.60;57.20;;;12.83;81.68;94624.94;4922061;28;19915;-48
2023/10/31 11:04:21;;;;;;;;;;;19.70;56.90;;;13.15;81.03;94618.59;4913027;29;19958;-47
2023/10/31 11:06:48;;;;;;;;;;;20.00;56.90;;;13.08;78.04;94622.78;4912032;29;19918;-50
2023/10/31 11:09:14;;;;;;;;;;;20.20;56.50;;;13.25;77.99;94624.81;4914732;29;20013;-47
2023/10/31 11:11:41;;;;;;;;;;;20.30;56.30;;;13.09;77.14;94619.03;4918597;29;19930;-48
2023/10/31 11:14:08;;;;;;;;;;;20.40;55.40;;;12.92;76.65;94631.16;4914939;29;20001;-51